createdAt,value
2022-08-02T00:02:20.614Z,1.48
2022-08-02T00:04:47.336Z,1.52
2022-08-02T00:07:14.928Z,1.65
2022-08-02T00:09:42.224Z,1.45
2022-08-02T00:12:09.386Z,1.48
2022-08-02T00:14:36.124Z,1.63
2022-08-02T00:17:02.501Z,1.60
2022-08-02T00:19:29.079Z,1.40
2022-08-02T00:21:55.451Z,1.30
2022-08-02T00:24:30.799Z,1.48
2022-08-02T00:26:57.707Z,1.80
2022-08-02T00:29:24.158Z,1.60
2022-08-02T00:31:50.534Z,1.30
2022-08-02T00:34:30.984Z,1.55
2022-08-02T00:36:59.410Z,1.35
2022-08-02T00:39:34.441Z,1.23
2022-08-02T00:42:02.447Z,1.60
2022-08-02T00:44:28.892Z,1.35
2022-08-02T00:46:55.273Z,1.33
2022-08-02T00:49:22.090Z,1.45
2022-08-02T00:51:48.626Z,1.42
2022-08-02T00:54:15.279Z,1.42
2022-08-02T00:56:49.621Z,1.50
2022-08-02T00:59:17.714Z,1.20
2022-08-02T01:01:55.839Z,1.50
2022-08-02T01:04:31.091Z,1.50
2022-08-02T01:09:25.803Z,1.40
2022-08-02T01:11:52.173Z,1.30
2022-08-02T01:14:19.137Z,1.33
2022-08-02T01:16:48.739Z,1.73
2022-08-02T01:19:32.379Z,1.20
2022-08-02T01:22:16.714Z,1.20
2022-08-02T01:25:11.318Z,1.40
2022-08-02T01:27:51.375Z,1.45
2022-08-02T01:30:18.783Z,1.23
2022-08-02T01:32:50.106Z,1.55
2022-08-02T01:35:27.225Z,1.35
2022-08-02T01:37:57.516Z,1.42
2022-08-02T01:40:29.253Z,1.33
2022-08-02T01:42:57.674Z,1.10
2022-08-02T01:45:25.671Z,1.25
2022-08-02T01:47:52.738Z,1.25
2022-08-02T01:50:24.809Z,1.20
2022-08-02T01:52:53.852Z,1.45
2022-08-02T01:55:33.530Z,1.75
2022-08-02T01:58:06.130Z,1.60
2022-08-02T02:00:36.179Z,1.52
2022-08-02T02:03:05.297Z,1.48
2022-08-02T02:05:32.348Z,1.40
2022-08-02T02:08:02.142Z,1.65
2022-08-02T02:10:31.200Z,1.45
2022-08-02T02:13:01.403Z,1.60
2022-08-02T02:15:28.302Z,1.30
2022-08-02T02:18:13.210Z,1.60
2022-08-02T02:20:41.574Z,1.30
2022-08-02T02:23:08.010Z,1.20
2022-08-02T02:25:36.473Z,1.23
2022-08-02T02:28:33.070Z,1.40
2022-08-02T02:31:03.779Z,1.30
2022-08-02T02:33:31.791Z,1.33
2022-08-02T02:35:58.535Z,1.40
2022-08-02T02:38:27.834Z,1.40
2022-08-02T02:40:56.578Z,1.75
2022-08-02T02:43:24.705Z,1.50
2022-08-02T02:45:51.774Z,1.63
2022-08-02T02:48:18.617Z,1.55
2022-08-02T02:50:45.415Z,1.50
2022-08-02T02:53:12.676Z,1.40
2022-08-02T02:55:39.432Z,1.20
2022-08-02T02:58:06.526Z,1.48
2022-08-02T03:00:51.715Z,1.70
2022-08-02T03:03:19.707Z,1.42
2022-08-02T03:05:48.283Z,1.73
2022-08-02T03:08:14.906Z,1.52
2022-08-02T03:10:43.311Z,1.50
2022-08-02T03:13:09.902Z,1.60
2022-08-02T03:15:37.623Z,1.40
2022-08-02T03:18:04.094Z,1.70
2022-08-02T03:20:30.478Z,1.70
2022-08-02T03:22:56.846Z,1.60
2022-08-02T03:25:23.266Z,1.50
2022-08-02T03:27:49.639Z,2.03
2022-08-02T03:30:16.118Z,1.50
2022-08-02T03:32:45.144Z,1.63
2022-08-02T03:35:18.614Z,1.65
2022-08-02T03:37:49.666Z,1.70
2022-08-02T03:40:16.690Z,2.10
2022-08-02T03:42:43.361Z,2.15
2022-08-02T03:45:12.479Z,1.83
2022-08-02T03:47:39.578Z,1.80
2022-08-02T03:50:12.669Z,2.00
2022-08-02T03:52:42.380Z,1.55
2022-08-02T03:55:10.274Z,1.70
2022-08-02T03:57:38.869Z,1.63
2022-08-02T04:00:06.830Z,1.80
2022-08-02T04:02:33.217Z,1.70
2022-08-02T04:04:59.567Z,1.80
2022-08-02T04:08:33.850Z,1.60
2022-08-02T04:10:12.578Z,1.40
2022-08-02T04:12:39.028Z,1.60
2022-08-02T04:15:06.824Z,2.10
2022-08-02T04:17:36.275Z,1.67
2022-08-02T04:20:08.958Z,1.58
2022-08-02T04:22:39.566Z,1.50
2022-08-02T04:25:07.903Z,1.63
2022-08-02T04:27:51.058Z,1.90
2022-08-02T04:30:30.511Z,2.10
2022-08-02T04:32:57.405Z,2.03
2022-08-02T04:35:23.938Z,1.48
2022-08-02T04:38:08.264Z,2.13
2022-08-02T04:40:37.669Z,1.80
2022-08-02T04:43:04.221Z,2.00
2022-08-02T04:45:30.853Z,2.10
2022-08-02T04:48:05.620Z,2.00
2022-08-02T04:50:32.786Z,1.90
2022-08-02T04:52:59.256Z,1.70
2022-08-02T04:55:28.563Z,1.70
2022-08-02T04:57:55.381Z,2.00
2022-08-02T05:00:22.178Z,1.92
2022-08-02T05:02:49.016Z,1.92
2022-08-02T05:05:16.313Z,1.90
2022-08-02T05:07:42.699Z,1.88
2022-08-02T05:10:09.238Z,2.20
2022-08-02T05:12:37.735Z,1.95
2022-08-02T05:15:04.701Z,1.95
2022-08-02T05:17:31.258Z,1.70
2022-08-02T05:19:58.104Z,2.08
2022-08-02T05:22:24.465Z,2.53
2022-08-02T05:24:50.894Z,2.53
2022-08-02T05:27:21.536Z,3.00
2022-08-02T05:29:53.833Z,2.58
2022-08-02T05:32:23.771Z,2.10
2022-08-02T05:34:51.807Z,1.98
2022-08-02T05:37:18.649Z,2.45
2022-08-02T05:39:55.514Z,1.80
2022-08-02T05:42:22.511Z,2.03
2022-08-02T05:44:48.873Z,2.00
2022-08-02T05:47:15.222Z,1.90
2022-08-02T05:49:41.946Z,2.38
2022-08-02T05:52:36.746Z,2.05
2022-08-02T05:55:17.202Z,2.20
2022-08-02T05:57:55.903Z,1.80
2022-08-02T06:00:22.762Z,2.10
2022-08-02T06:03:19.451Z,2.10
2022-08-02T06:05:52.194Z,2.47
2022-08-02T06:08:20.904Z,2.35
2022-08-02T06:10:48.306Z,2.60
2022-08-02T06:13:17.946Z,1.83
2022-08-02T06:15:53.283Z,1.80
2022-08-02T06:18:28.324Z,1.83
2022-08-02T06:20:58.710Z,1.90
2022-08-02T06:23:58.728Z,2.10
2022-08-02T06:26:27.411Z,2.20
2022-08-02T06:28:55.082Z,2.40
2022-08-02T06:31:21.439Z,2.72
2022-08-02T06:33:47.829Z,2.42
2022-08-02T06:36:18.407Z,2.90
2022-08-02T06:39:05.428Z,2.20
2022-08-02T06:41:39.909Z,2.05
2022-08-02T06:44:40.551Z,2.20
2022-08-02T06:47:12.012Z,2.35
2022-08-02T06:49:52.859Z,2.28
2022-08-02T06:52:27.367Z,2.38
2022-08-02T06:54:55.460Z,2.22
2022-08-02T06:57:21.853Z,2.47
2022-08-02T06:59:48.211Z,2.20
2022-08-02T07:02:14.698Z,2.17
2022-08-02T07:04:41.110Z,2.60
2022-08-02T07:07:07.506Z,2.10
2022-08-02T07:09:33.916Z,2.33
2022-08-02T07:12:00.275Z,2.00
2022-08-02T07:14:26.726Z,2.17
2022-08-02T07:16:53.496Z,2.65
2022-08-02T07:19:19.860Z,1.95
2022-08-02T07:21:57.682Z,2.75
2022-08-02T07:24:27.173Z,2.67
2022-08-02T07:27:10.463Z,2.25
2022-08-02T07:29:45.228Z,2.38
2022-08-02T07:32:15.684Z,2.05
2022-08-02T07:34:42.771Z,2.08
2022-08-02T07:37:25.575Z,2.10
2022-08-02T07:40:04.673Z,1.98
2022-08-02T07:42:32.837Z,2.30
2022-08-02T07:44:59.280Z,2.22
2022-08-02T07:47:25.684Z,2.03
2022-08-02T07:49:52.071Z,2.35
2022-08-02T07:52:18.518Z,2.20
2022-08-02T07:54:44.878Z,1.80
2022-08-02T07:57:11.234Z,1.85
2022-08-02T07:59:37.797Z,1.90
2022-08-02T08:02:04.608Z,2.00
2022-08-02T08:04:31.028Z,1.85
2022-08-02T08:06:57.464Z,1.70
2022-08-02T08:09:23.836Z,1.70
2022-08-02T08:11:50.237Z,1.60
2022-08-02T08:14:17.146Z,1.73
2022-08-02T08:16:43.893Z,1.48
2022-08-02T08:19:10.292Z,1.33
2022-08-02T08:21:36.720Z,1.40
2022-08-02T08:24:04.601Z,1.42
2022-08-02T08:26:30.980Z,1.70
2022-08-02T08:28:57.389Z,1.88
2022-08-02T08:31:24.593Z,1.70
2022-08-02T08:33:50.944Z,1.52
2022-08-02T08:36:17.469Z,1.80
2022-08-02T08:38:44.079Z,1.20
2022-08-02T08:41:10.566Z,2.00
2022-08-02T08:43:37.161Z,2.92
2022-08-02T08:46:03.563Z,2.58
2022-08-02T08:48:33.032Z,1.98
2022-08-02T08:51:11.507Z,1.80
2022-08-02T08:53:43.587Z,1.90
2022-08-02T08:56:15.901Z,1.52
2022-08-02T08:58:44.472Z,1.70
2022-08-02T09:01:12.712Z,1.50
2022-08-02T09:03:39.091Z,1.48
2022-08-02T09:06:05.730Z,1.50
2022-08-02T09:08:32.183Z,1.40
2022-08-02T09:10:58.855Z,1.52
2022-08-02T09:13:38.534Z,1.55
2022-08-02T09:16:14.525Z,1.42
2022-08-02T09:18:46.440Z,1.48
2022-08-02T09:21:15.416Z,1.52
2022-08-02T09:23:46.697Z,1.30
2022-08-02T09:26:15.456Z,1.40
2022-08-02T09:28:46.280Z,1.63
2022-08-02T09:31:15.004Z,1.50
2022-08-02T09:33:43.287Z,1.58
2022-08-02T09:36:14.093Z,1.42
2022-08-02T09:38:41.960Z,1.40
2022-08-02T09:41:21.778Z,1.20
2022-08-02T09:44:03.165Z,1.50
2022-08-02T09:46:34.562Z,1.42
2022-08-02T09:49:02.911Z,1.23
2022-08-02T09:51:34.846Z,1.13
2022-08-02T09:54:11.545Z,1.45
2022-08-02T09:56:46.505Z,1.25
2022-08-02T09:59:14.654Z,1.60
2022-08-02T10:01:50.512Z,1.48
2022-08-02T10:04:24.768Z,1.63
2022-08-02T10:06:53.257Z,1.40
2022-08-02T10:09:20.451Z,1.48
2022-08-02T10:11:47.803Z,1.50
2022-08-02T10:14:14.169Z,1.65
2022-08-02T10:16:42.370Z,1.60
2022-08-02T10:19:09.174Z,1.67
2022-08-02T10:21:50.491Z,1.50
2022-08-02T10:24:28.566Z,1.33
2022-08-02T10:26:55.626Z,1.60
2022-08-02T10:29:31.222Z,1.50
2022-08-02T10:32:30.135Z,1.60
2022-08-02T10:35:23.308Z,1.50
2022-08-02T10:37:48.111Z,1.25
2022-08-02T10:40:23.639Z,1.42
2022-08-02T10:42:54.071Z,1.45
2022-08-02T10:45:21.914Z,1.58
2022-08-02T10:48:10.352Z,1.42
2022-08-02T10:50:45.409Z,1.25
2022-08-02T10:53:33.916Z,1.35
2022-08-02T10:56:03.645Z,1.75
2022-08-02T10:58:32.878Z,1.42
2022-08-02T11:01:05.024Z,1.50
2022-08-02T11:03:32.755Z,1.48
2022-08-02T11:06:25.566Z,1.63
2022-08-02T11:09:32.817Z,1.20
2022-08-02T11:12:16.462Z,1.60
2022-08-02T11:14:45.647Z,1.33
2022-08-02T11:17:19.260Z,1.50
2022-08-02T11:20:10.356Z,1.70
2022-08-02T11:22:36.902Z,1.35
2022-08-02T11:25:23.817Z,1.38
2022-08-02T11:28:07.518Z,1.38
2022-08-02T11:30:34.825Z,1.48
2022-08-02T11:33:01.395Z,1.48
2022-08-02T11:35:34.064Z,1.40
2022-08-02T11:38:22.333Z,1.50
2022-08-02T11:40:49.287Z,1.42
2022-08-02T11:43:17.534Z,1.40
2022-08-02T11:45:44.154Z,1.30
2022-08-02T11:48:10.540Z,1.92
2022-08-02T11:50:36.910Z,1.60
2022-08-02T11:53:12.890Z,1.48
2022-08-02T11:55:39.271Z,1.50
2022-08-02T11:58:07.769Z,1.35
2022-08-02T12:00:34.273Z,1.60
2022-08-02T12:03:01.300Z,1.42
2022-08-02T12:06:02.751Z,1.50
2022-08-02T12:08:14.438Z,1.33
2022-08-02T12:10:49.398Z,1.38
2022-08-02T12:13:15.815Z,1.38
2022-08-02T12:15:46.872Z,1.50
2022-08-02T12:18:40.900Z,1.27
2022-08-02T12:21:24.666Z,1.63
2022-08-02T12:23:59.364Z,1.77
2022-08-02T12:26:27.527Z,1.50
2022-08-02T12:28:59.899Z,1.38
2022-08-02T12:31:56.413Z,1.48
2022-08-02T12:34:31.675Z,1.23
2022-08-02T12:37:05.821Z,1.45
2022-08-02T12:39:40.658Z,1.48
2022-08-02T12:42:08.898Z,1.60
2022-08-02T12:45:00.230Z,1.70
2022-08-02T12:47:31.383Z,1.50
2022-08-02T12:50:18.254Z,1.40
2022-08-02T12:52:47.115Z,1.42
2022-08-02T12:55:25.867Z,1.70
2022-08-02T12:58:12.369Z,1.48
2022-08-02T13:00:39.595Z,1.75
2022-08-02T13:03:11.641Z,1.55
2022-08-02T13:05:55.912Z,1.55
2022-08-02T13:08:24.385Z,1.83
2022-08-02T13:10:50.751Z,1.77
2022-08-02T13:13:17.565Z,1.50
2022-08-02T13:15:48.972Z,1.60
2022-08-02T13:18:18.233Z,1.70
2022-08-02T13:20:45.535Z,1.50
2022-08-02T13:23:21.210Z,1.27
2022-08-02T13:25:48.450Z,1.30
2022-08-02T13:28:19.414Z,1.50
2022-08-02T13:30:46.907Z,1.65
2022-08-02T13:33:13.594Z,1.58
2022-08-02T13:35:39.962Z,1.30
2022-08-02T13:38:06.566Z,1.40
2022-08-02T13:40:49.167Z,1.40
2022-08-02T13:43:19.751Z,1.30
2022-08-02T13:45:46.122Z,1.85
2022-08-02T13:48:18.095Z,1.60
2022-08-02T13:50:45.039Z,1.35
2022-08-02T13:53:11.393Z,1.60
2022-08-02T13:55:38.575Z,1.35
2022-08-02T13:58:09.715Z,1.65
2022-08-02T14:00:36.473Z,1.40
2022-08-02T14:03:04.644Z,1.40
2022-08-02T14:05:46.945Z,1.25
2022-08-02T14:08:18.998Z,1.50
2022-08-02T14:10:47.193Z,1.27
2022-08-02T14:13:13.676Z,1.20
2022-08-02T14:15:40.045Z,1.33
2022-08-02T14:18:06.409Z,1.20
2022-08-02T14:20:32.822Z,1.40
2022-08-02T14:22:59.179Z,1.70
2022-08-02T14:25:25.966Z,1.30
2022-08-02T14:27:52.607Z,1.35
2022-08-02T14:30:19.012Z,1.52
2022-08-02T14:32:45.445Z,1.48
2022-08-02T14:35:11.890Z,1.40
2022-08-02T14:37:38.274Z,1.25
2022-08-02T14:40:05.210Z,1.50
2022-08-02T14:42:31.621Z,1.52
2022-08-02T14:44:58.148Z,1.40
2022-08-02T14:47:24.832Z,1.30
2022-08-02T14:49:51.246Z,1.10
2022-08-02T14:52:18.385Z,1.48
2022-08-02T14:54:45.111Z,2.08
2022-08-02T14:57:13.275Z,1.35
2022-08-02T14:59:42.341Z,1.92
2022-08-02T15:02:10.084Z,1.60
2022-08-02T15:04:42.440Z,1.40
2022-08-02T15:07:09.483Z,1.48
2022-08-02T15:09:35.843Z,1.30
2022-08-02T15:12:06.773Z,1.52
2022-08-02T15:14:33.154Z,1.35
2022-08-02T15:16:59.529Z,1.40
2022-08-02T15:19:57.830Z,1.50
2022-08-02T15:22:19.659Z,1.40
2022-08-02T15:24:47.276Z,1.50
2022-08-02T15:27:14.746Z,1.42
2022-08-02T15:29:45.250Z,1.52
2022-08-02T15:32:12.884Z,1.50
2022-08-02T15:34:39.848Z,1.60
2022-08-02T15:37:06.277Z,1.58
2022-08-02T15:39:32.703Z,1.40
2022-08-02T15:41:59.067Z,1.50
2022-08-02T15:44:25.462Z,1.60
2022-08-02T15:46:53.135Z,1.55
2022-08-02T15:49:20.675Z,1.40
2022-08-02T15:51:47.169Z,1.40
2022-08-02T15:54:13.521Z,1.35
2022-08-02T15:56:39.876Z,1.63
2022-08-02T15:59:06.267Z,1.77
2022-08-02T16:01:37.347Z,1.45
2022-08-02T16:04:05.850Z,1.48
2022-08-02T16:06:32.346Z,1.45
2022-08-02T16:08:58.690Z,1.50
2022-08-02T16:11:25.073Z,1.52
2022-08-02T16:13:54.371Z,1.75
2022-08-02T16:16:22.532Z,1.40
2022-08-02T16:18:49.164Z,1.73
2022-08-02T16:21:15.591Z,1.52
2022-08-02T16:24:01.759Z,1.30
2022-08-02T16:26:30.413Z,1.50
2022-08-02T16:28:57.000Z,1.60
2022-08-02T16:31:23.781Z,1.55
2022-08-02T16:33:50.190Z,1.45
2022-08-02T16:36:19.366Z,1.40
2022-08-02T16:38:45.989Z,1.60
2022-08-02T16:41:12.333Z,1.50
2022-08-02T16:43:42.662Z,1.40
2022-08-02T16:46:09.933Z,2.20
2022-08-02T16:48:36.581Z,1.40
2022-08-02T16:51:02.966Z,1.60
2022-08-02T16:53:37.262Z,1.38
2022-08-02T16:56:18.220Z,1.30
2022-08-02T16:58:45.287Z,1.48
2022-08-02T17:01:14.208Z,1.55
2022-08-02T17:03:56.002Z,1.58
2022-08-02T17:06:26.329Z,1.50
2022-08-02T17:08:55.997Z,1.30
2022-08-02T17:11:23.858Z,1.60
2022-08-02T17:13:51.122Z,1.42
2022-08-02T17:16:20.714Z,1.73
2022-08-02T17:18:53.894Z,1.63
2022-08-02T17:21:20.483Z,1.52
2022-08-02T17:26:34.443Z,1.50
2022-08-02T17:29:15.321Z,1.20
2022-08-02T17:32:05.741Z,1.48
2022-08-02T17:34:31.504Z,1.30
2022-08-02T17:36:57.874Z,1.42
2022-08-02T17:39:24.398Z,1.52
2022-08-02T17:42:00.005Z,1.63
2022-08-02T17:44:37.553Z,1.63
2022-08-02T17:47:06.974Z,1.33
2022-08-02T17:49:33.549Z,1.50
2022-08-02T17:52:47.672Z,1.30
2022-08-02T17:54:48.183Z,1.55
2022-08-02T17:57:15.405Z,1.52
2022-08-02T17:59:42.417Z,1.50
2022-08-02T18:02:09.229Z,1.52
2022-08-02T18:04:37.909Z,1.77
2022-08-02T18:07:04.598Z,1.55
2022-08-02T18:09:36.511Z,1.60
2022-08-02T18:12:03.057Z,1.73
2022-08-02T18:14:30.225Z,1.58
2022-08-02T18:16:56.631Z,1.40
2022-08-02T18:19:23.818Z,1.67
2022-08-02T18:22:08.506Z,1.23
2022-08-02T18:24:35.488Z,1.60
2022-08-02T18:27:04.510Z,1.50
2022-08-02T18:29:38.530Z,1.70
2022-08-02T18:32:05.831Z,1.80
2022-08-02T18:34:38.383Z,1.65
2022-08-02T18:37:05.609Z,1.85
2022-08-02T18:39:33.354Z,1.60
2022-08-02T18:42:05.083Z,1.77
2022-08-02T18:44:31.514Z,1.80
2022-08-02T18:46:57.870Z,1.90
2022-08-02T18:49:30.081Z,1.77
2022-08-02T18:52:14.347Z,1.20
2022-08-02T18:54:41.082Z,1.55
2022-08-02T18:58:19.201Z,1.55
2022-08-02T18:59:54.084Z,1.50
2022-08-02T19:02:20.651Z,1.70
2022-08-02T19:04:51.490Z,1.55
2022-08-02T19:07:22.512Z,1.80
2022-08-02T19:09:49.371Z,1.85
2022-08-02T19:12:16.126Z,1.75
2022-08-02T19:14:54.918Z,2.10
2022-08-02T19:17:53.872Z,1.83
2022-08-02T19:20:10.059Z,2.20
2022-08-02T19:22:46.243Z,2.20
2022-08-02T19:25:15.948Z,1.58
2022-08-02T19:27:47.482Z,1.73
2022-08-02T19:30:14.312Z,1.88
2022-08-02T19:32:58.968Z,1.70
2022-08-02T19:35:30.657Z,1.35
2022-08-02T19:38:07.311Z,1.92
2022-08-02T19:40:33.718Z,1.60
2022-08-02T19:44:24.048Z,1.90
2022-08-02T19:45:50.842Z,2.20
2022-08-02T19:48:24.568Z,2.00
2022-08-02T19:50:55.942Z,1.95
2022-08-02T19:53:28.902Z,2.05
2022-08-02T19:56:13.467Z,2.05
2022-08-02T19:58:48.786Z,2.35
2022-08-02T20:01:16.757Z,2.22
2022-08-02T20:03:51.392Z,2.10
2022-08-02T20:06:19.174Z,1.77
2022-08-02T20:08:53.349Z,1.95
2022-08-02T20:11:24.652Z,1.75
2022-08-02T20:13:52.207Z,1.83
2022-08-02T20:16:27.221Z,2.33
2022-08-02T20:18:55.764Z,1.90
2022-08-02T20:21:36.288Z,1.77
2022-08-02T20:24:05.607Z,1.70
2022-08-02T20:26:32.022Z,1.63
2022-08-02T20:28:59.115Z,1.65
2022-08-02T20:31:29.868Z,1.80
2022-08-02T20:33:56.873Z,1.60
2022-08-02T20:36:24.247Z,1.70
2022-08-02T20:38:50.611Z,1.60
2022-08-02T20:41:20.293Z,1.58
2022-08-02T20:43:48.169Z,1.77
2022-08-02T20:46:15.227Z,1.52
2022-08-02T20:48:41.627Z,1.77
2022-08-02T20:51:09.855Z,1.70
2022-08-02T20:53:56.439Z,1.77
2022-08-02T20:56:23.662Z,1.77
2022-08-02T20:58:52.095Z,2.22
2022-08-02T21:01:21.355Z,1.70
2022-08-02T21:03:53.002Z,3.60
2022-08-02T21:06:28.150Z,2.95
2022-08-02T21:08:55.045Z,1.90
2022-08-02T21:11:25.258Z,1.50
2022-08-02T21:14:06.923Z,1.70
2022-08-02T21:16:34.728Z,1.65
2022-08-02T21:19:01.379Z,1.48
2022-08-02T21:21:28.590Z,1.67
2022-08-02T21:23:56.630Z,1.70
2022-08-02T21:26:27.881Z,1.65
2022-08-02T21:28:56.807Z,1.90
2022-08-02T21:31:23.174Z,1.90
2022-08-02T21:33:59.397Z,1.38
2022-08-02T21:36:32.694Z,1.75
2022-08-02T21:39:05.003Z,1.70
2022-08-02T21:41:39.786Z,1.80
2022-08-02T21:44:16.842Z,1.65
2022-08-02T21:46:45.123Z,1.80
2022-08-02T21:49:12.518Z,1.70
2022-08-02T21:51:39.568Z,1.73
2022-08-02T21:54:18.171Z,1.50
2022-08-02T21:56:48.403Z,1.67
2022-08-02T21:59:16.664Z,1.48
2022-08-02T22:01:52.361Z,1.52
2022-08-02T22:04:18.995Z,1.83
2022-08-02T22:06:46.704Z,2.00
2022-08-02T22:09:17.172Z,1.70
2022-08-02T22:11:44.428Z,1.75
2022-08-02T22:14:12.614Z,1.77
2022-08-02T22:16:39.005Z,1.50
2022-08-02T22:19:06.613Z,1.55
2022-08-02T22:21:33.647Z,1.90
2022-08-02T22:24:29.689Z,1.80
2022-08-02T22:26:56.836Z,1.77
2022-08-02T22:29:23.701Z,1.42
2022-08-02T22:31:50.099Z,1.60
2022-08-02T22:34:37.154Z,1.75
2022-08-02T22:37:05.725Z,1.80
2022-08-02T22:39:33.831Z,1.55
2022-08-02T22:42:06.301Z,1.63
2022-08-02T22:44:34.133Z,1.90
2022-08-02T22:47:07.032Z,1.38
2022-08-02T22:52:26.786Z,1.90
2022-08-02T22:54:54.781Z,1.70
2022-08-02T22:57:30.864Z,1.70
2022-08-02T22:58:49.221Z,1.40
2022-08-02T22:59:58.444Z,1.90
2022-08-02T23:02:25.143Z,1.77
2022-08-02T23:04:51.860Z,1.60
2022-08-02T23:07:18.281Z,1.52
2022-08-02T23:09:44.687Z,1.80
2022-08-02T23:12:11.055Z,1.95
2022-08-02T23:14:37.419Z,2.10
2022-08-02T23:17:22.187Z,2.15
2022-08-02T23:19:51.159Z,1.85
2022-08-02T23:22:23.516Z,1.85
2022-08-02T23:24:57.060Z,1.73
2022-08-02T23:27:23.530Z,1.77
2022-08-02T23:29:50.018Z,1.70
2022-08-02T23:32:16.817Z,1.73
2022-08-02T23:34:43.670Z,1.60
2022-08-02T23:37:10.491Z,1.70
2022-08-02T23:39:36.916Z,1.60
2022-08-02T23:42:04.199Z,1.70
2022-08-02T23:44:30.649Z,1.55
2022-08-02T23:46:57.750Z,1.73
2022-08-02T23:49:24.253Z,1.83
2022-08-02T23:51:51.355Z,1.67
2022-08-02T23:54:18.359Z,1.73
2022-08-02T23:56:44.771Z,1.50
2022-08-02T23:59:11.210Z,1.50
